Amber Beverly — VRHK5 — position and weather

sailwx.info

Track history (hours):
 
Tides and Currents Weather Stations Pressure Air Temp Water Temp Dewpoint Dewpoint Depression Visibility Wind Speed Wind Dir Waves Ship Positions

Amber Beverly

Last reported at 2015-Jan-03 06:21 UTC. Time now 2015-Jan-29 10:21 UTC.
Position N 01°56' E 102°17'.
Warning: this ship's position is 26 days out of date.

Length 190 m; draft 12.2 m.

Type: Cargo ship. MMSI: 477317100.

Date/timePositionNaut miles runAvg speedWind from/ knotsBaromVisibWave heightAir tempDewpointWater temp
2015-Jan-03 06:21N 01°56' E 102°17'1113.8
2015-Jan-03 05:32N 01°51' E 102°27'1513.8
2015-Jan-03 04:29N 01°46' E 102°41'7512.2
2015-Jan-02 22:21N 01°10' E 103°47'1113.5
2015-Jan-02 21:33N 01°15' E 103°56'2 1.8
2015-Jan-02 20:26N 01°16' E 103°57'0 0.0
2015-Jan-02 19:32N 01°16' E 103°57'0 0.0
2015-Jan-02 18:20N 01°16' E 103°57'0 0.0
2015-Jan-02 17:20N 01°16' E 103°57'0 0.0
2015-Jan-02 15:32N 01°16' E 103°57'0 0.0
2015-Jan-02 14:32N 01°16' E 103°57'0 0.0
2015-Jan-02 13:26N 01°16' E 103°57'0 0.0
2015-Jan-02 12:32N 01°16' E 103°57'0 0.0
2015-Jan-02 10:08N 01°16' E 103°57'0 0.1
2015-Jan-02 09:33N 01°16' E 103°57'4 4.2
2015-Jan-02 08:33N 01°16' E 104°02'9 8.6
2015-Jan-02 07:33N 01°17' E 104°10'  
2014-Dec-25 05:32N 36°38' E 122°43'1313.0
2014-Dec-25 04:33N 36°50' E 122°45'1211.7
2014-Dec-25 03:33N 37°02' E 122°47'1111.2
2014-Dec-25 02:32N 37°13' E 122°47'1311.4
2014-Dec-25 01:24N 37°26' E 122°46'8 9.0
2014-Dec-25 00:33N 37°33' E 122°40'9 9.1
2014-Dec-24 23:33N 37°39' E 122°32'9 9.5
2014-Dec-24 22:33N 37°45' E 122°23'  
Track history (hours):
 
Tides and Currents Weather Stations Pressure Air Temp Water Temp Dewpoint Dewpoint Depression Visibility Wind Speed Wind Dir Waves Ship Positions

Amber Beverly

Last reported at 2015-Jan-03 06:21 UTC. Time now 2015-Jan-29 10:21 UTC.
Position N 01°56' E 102°17'.
Warning: this ship's position is 26 days out of date.

Length 190 m; draft 12.2 m.

Type: Cargo ship. MMSI: 477317100.

Date/timePositionNaut miles runAvg speedWind from/ knotsBaromVisibWave heightAir tempDewpointWater temp
2015-Jan-03 06:21N 01°56' E 102°17'1113.8
2015-Jan-03 05:32N 01°51' E 102°27'1513.8
2015-Jan-03 04:29N 01°46' E 102°41'7512.2
2015-Jan-02 22:21N 01°10' E 103°47'1113.5
2015-Jan-02 21:33N 01°15' E 103°56'2 1.8
2015-Jan-02 20:26N 01°16' E 103°57'0 0.0
2015-Jan-02 19:32N 01°16' E 103°57'0 0.0
2015-Jan-02 18:20N 01°16' E 103°57'0 0.0
2015-Jan-02 17:20N 01°16' E 103°57'0 0.0
2015-Jan-02 15:32N 01°16' E 103°57'0 0.0
2015-Jan-02 14:32N 01°16' E 103°57'0 0.0
2015-Jan-02 13:26N 01°16' E 103°57'0 0.0
2015-Jan-02 12:32N 01°16' E 103°57'0 0.0
2015-Jan-02 10:08N 01°16' E 103°57'0 0.1
2015-Jan-02 09:33N 01°16' E 103°57'4 4.2
2015-Jan-02 08:33N 01°16' E 104°02'9 8.6
2015-Jan-02 07:33N 01°17' E 104°10'  
2014-Dec-25 05:32N 36°38' E 122°43'1313.0
2014-Dec-25 04:33N 36°50' E 122°45'1211.7
2014-Dec-25 03:33N 37°02' E 122°47'1111.2
2014-Dec-25 02:32N 37°13' E 122°47'1311.4
2014-Dec-25 01:24N 37°26' E 122°46'8 9.0
2014-Dec-25 00:33N 37°33' E 122°40'9 9.1
2014-Dec-24 23:33N 37°39' E 122°32'9 9.5
2014-Dec-24 22:33N 37°45' E 122°23'  

Dump ship's entire track history